DAFH

Hassi R'Mel Airport

Algeria
METAR DAFH 241800Z 02018KT 8000 TS DRSA FEW026CB BKN030 26/11 Q1014
Observed Flight Rules
Apr-24 @ 18:00 UTC (7 hours ago) Marginal Visual Flight Rules
Wind Visibility Clouds Conditions
20° at 18 knots 7,998 meters
  • Few at 2,600' AGL
  • Broken at 3,000' AGL
  • Thunderstorm
  • Low drifting
  • Sand
Temperatures Readings
Current 26°C / 79°F
Dewpoint 11°C / 52°F
Humidity 39%
Altimeter 29.94" Hg
Pressure 1014 hPa
Elevation 774
METAR DAFH 241800Z 02018KT 8000 TS DRSA FEW026CB BKN030 26/11 Q1014
Observed Flight Rules
Apr-24 @ 18:00 UTC
(7 hours ago)
MVFR
Wind Visibility
20° at 18 knots 7,998 meters
Clouds
  • Few at 2,600' AGL
  • Broken at 3,000' AGL
Conditions
  • Thunderstorm
  • Low drifting
  • Sand
Temperature Dewpoint
26°C / 79°F 11°C / 52°F
Humidity Altimeter Pressure
39% 29.94" Hg 1014 hPa